Туризм
Свали.ру
Погода в мире
ИА "Метеоновости"
Информеры
для сайтов
Туры
поиск и заказ
Авиабилеты
регулярные и чартерные рейсы
 
    На главную   Табло рисков задержки   Авиабилеты   Расписание авиарейсов

Unalaska Airport    ICAO или ID: PADU, IATA: DUT
Небольшой аэропорт, регулярные рейсы
добавить в избранное


широта:
долгота:
высота над уровнем моря:
53°54'
-166°33'

7 м
Страна: США (United States)
погода
туры
отели
аэропорты
Риск задержки рейсов из-за погоды
Факт:  
Прогноз:  
 Карта
 




Прогноз погоды на 24 ч. с 06:00 08-12-2019 по 06:00 09-12-2019 UTC
Прогнозируемый риск задержки рейсов из-за погодных условий
 
PADU на 24ч. с 08/06ч. до 09/06ч., ливневые осадки вблизи аэропорта, значительная облачность на 1200 м, ветер переменный 2 м/c, гор. видимость: 9000+, ВНГО: 1200, ночь, день

Исходная телеграмма в коде TAF
PADU 080520Z 0806/0906 VRB04KT P6SM VCSH BKN040 OVC060=

Раскодировка телеграмм производится в автоматическом режиме, в телеграммах могут содержаться ошибки, приводящие к их неправильной интерпретации.

Предупреждение: данные на этом сайте не могут быть использованы для планирования полётов и предоставляются только в информационных целях.
Найти аэропорт
По названию или городу
только регулярные рейсы

Избранные аэропорты
Список пуст



© 2008 Данио-Пресс. Все права защищены.
Использование материалов сайта возможно только с согласия администрации сервера.
По вопросам рекламы и размещения информации обращаться сюда.


 Рейтинг@Mail.ru  Rambler's Top100